createdAt,value
2018-06-17T00:00:05.172Z,6.63
2018-06-17T00:02:33.795Z,7.00
2018-06-17T00:05:02.441Z,6.70
2018-06-17T00:07:31.084Z,6.60
2018-06-17T00:09:59.799Z,7.13
2018-06-17T00:12:28.480Z,7.27
2018-06-17T00:14:57.188Z,6.20
2018-06-17T00:17:25.793Z,6.80
2018-06-17T00:19:54.470Z,6.97
2018-06-17T00:22:23.140Z,6.90
2018-06-17T00:24:51.781Z,6.70
2018-06-17T00:27:20.439Z,6.40
2018-06-17T00:29:49.122Z,6.43
2018-06-17T00:32:17.801Z,6.70
2018-06-17T00:34:46.468Z,6.67
2018-06-17T00:37:15.204Z,8.50
2018-06-17T00:39:43.801Z,6.40
2018-06-17T00:42:12.425Z,5.70
2018-06-17T00:44:41.044Z,5.87
2018-06-17T00:47:09.651Z,6.80
2018-06-17T00:49:38.308Z,6.03
2018-06-17T00:52:07.017Z,6.50
2018-06-17T00:54:35.724Z,6.13
2018-06-17T00:57:15.361Z,5.60
2018-06-17T00:59:44.043Z,5.73
2018-06-17T01:02:12.685Z,6.37
2018-06-17T01:04:41.412Z,5.80
2018-06-17T01:07:10.038Z,6.13
2018-06-17T01:09:38.704Z,6.53
2018-06-17T01:12:07.365Z,6.40
2018-06-17T01:14:36.014Z,5.83
2018-06-17T01:17:04.688Z,6.70
2018-06-17T01:19:33.320Z,6.13
2018-06-17T01:22:02.473Z,7.03
2018-06-17T01:24:31.110Z,6.93
2018-06-17T01:26:59.773Z,6.77
2018-06-17T01:29:28.499Z,6.87
2018-06-17T01:31:57.087Z,7.93
2018-06-17T01:34:25.711Z,6.70
2018-06-17T01:36:54.298Z,7.07
2018-06-17T01:39:22.920Z,7.20
2018-06-17T01:41:51.476Z,7.40
2018-06-17T01:44:20.074Z,6.63
2018-06-17T01:46:48.789Z,7.10
2018-06-17T01:49:17.531Z,7.23
2018-06-17T01:51:46.171Z,7.23
2018-06-17T01:54:14.782Z,7.80
2018-06-17T01:56:43.401Z,7.20
2018-06-17T01:59:11.960Z,7.80
2018-06-17T02:01:40.557Z,7.27
2018-06-17T02:04:14.540Z,8.07
2018-06-17T02:06:48.501Z,8.50
2018-06-17T02:09:22.491Z,7.90
2018-06-17T02:11:56.332Z,8.80
2018-06-17T02:14:30.120Z,7.10
2018-06-17T02:16:58.801Z,7.70
2018-06-17T02:19:27.391Z,8.47
2018-06-17T02:21:55.995Z,8.03
2018-06-17T02:24:24.601Z,8.77
2018-06-17T02:26:53.336Z,7.90
2018-06-17T02:29:21.896Z,8.47
2018-06-17T02:31:50.489Z,8.00
2018-06-17T02:34:19.095Z,7.00
2018-06-17T02:36:47.696Z,8.00
2018-06-17T02:39:16.345Z,8.87
2018-06-17T02:41:44.965Z,8.90
2018-06-17T02:44:13.595Z,9.10
2018-06-17T02:46:47.628Z,8.33
2018-06-17T02:49:21.687Z,8.57
2018-06-17T02:51:55.520Z,8.40
2018-06-17T02:54:30.413Z,8.40
2018-06-17T02:56:59.028Z,8.13
2018-06-17T02:59:27.609Z,8.77
2018-06-17T03:01:56.229Z,9.30
2018-06-17T03:04:24.800Z,8.80
2018-06-17T03:06:53.411Z,7.80
2018-06-17T03:09:22.036Z,8.10
2018-06-17T03:11:50.712Z,8.10
2018-06-17T03:14:19.308Z,9.43
2018-06-17T03:16:47.969Z,8.30
2018-06-17T03:19:16.652Z,8.10
2018-06-17T03:21:45.495Z,8.67
2018-06-17T03:24:14.081Z,8.13
2018-06-17T03:26:48.069Z,8.47
2018-06-17T03:29:21.904Z,7.83
2018-06-17T03:31:55.803Z,8.60
2018-06-17T03:34:24.418Z,7.67
2018-06-17T03:36:53.058Z,8.63
2018-06-17T03:39:21.663Z,8.60
2018-06-17T03:41:50.276Z,8.60
2018-06-17T03:44:18.845Z,8.13
2018-06-17T03:46:47.426Z,9.43
2018-06-17T03:49:15.672Z,8.60
2018-06-17T03:51:44.277Z,8.43
2018-06-17T03:54:12.918Z,8.13
2018-06-17T03:56:41.545Z,8.10
2018-06-17T03:59:10.177Z,8.20
2018-06-17T04:01:38.812Z,8.00
2018-06-17T04:04:07.692Z,9.03
2018-06-17T04:06:36.331Z,9.10
2018-06-17T04:09:07.026Z,9.10
2018-06-17T04:11:35.909Z,8.20
2018-06-17T04:14:04.637Z,8.10
2018-06-17T04:16:33.335Z,8.60
2018-06-17T04:19:01.917Z,8.27
2018-06-17T04:21:30.504Z,8.20
2018-06-17T04:23:59.100Z,7.00
2018-06-17T04:26:27.712Z,6.90
2018-06-17T04:28:56.308Z,6.83
2018-06-17T04:31:24.905Z,7.27
2018-06-17T04:33:53.576Z,6.13
2018-06-17T04:36:22.164Z,6.90
2018-06-17T04:38:50.776Z,7.90
2018-06-17T04:41:19.365Z,6.23
2018-06-17T04:43:47.981Z,6.63
2018-06-17T04:46:16.596Z,7.20
2018-06-17T04:48:45.204Z,6.47
2018-06-17T04:51:13.800Z,6.50
2018-06-17T04:53:42.416Z,6.93
2018-06-17T04:56:10.993Z,6.93
2018-06-17T04:58:39.593Z,7.13
2018-06-17T05:01:08.222Z,7.10
2018-06-17T05:03:36.516Z,6.73
2018-06-17T05:06:05.188Z,7.40
2018-06-17T05:08:33.769Z,7.20
2018-06-17T05:11:02.382Z,6.13
2018-06-17T05:13:31.075Z,7.40
2018-06-17T05:15:59.633Z,6.90
2018-06-17T05:18:28.271Z,6.70
2018-06-17T05:20:56.908Z,6.50
2018-06-17T05:23:25.560Z,7.40
2018-06-17T05:25:54.182Z,7.63
2018-06-17T05:28:22.838Z,6.53
2018-06-17T05:30:51.453Z,7.70
2018-06-17T05:33:20.735Z,7.77
2018-06-17T05:35:49.319Z,8.00
2018-06-17T05:38:17.924Z,7.50
2018-06-17T05:40:46.615Z,7.70
2018-06-17T05:43:15.260Z,7.37
2018-06-17T05:45:43.911Z,7.83
2018-06-17T05:48:12.540Z,6.90
2018-06-17T05:50:41.163Z,6.40
2018-06-17T05:53:10.013Z,6.63
2018-06-17T05:55:38.644Z,7.30
2018-06-17T05:58:07.252Z,5.97
2018-06-17T06:00:35.889Z,6.57
2018-06-17T06:03:04.552Z,6.43
2018-06-17T06:05:33.178Z,6.67
2018-06-17T06:08:01.808Z,6.70
2018-06-17T06:10:30.402Z,6.87
2018-06-17T06:12:59.029Z,7.30
2018-06-17T06:15:27.649Z,6.77
2018-06-17T06:17:56.290Z,6.67
2018-06-17T06:20:24.887Z,6.67
2018-06-17T06:22:53.528Z,6.30
2018-06-17T06:25:22.292Z,7.17
2018-06-17T06:27:51.387Z,7.30
2018-06-17T06:30:19.986Z,5.93
2018-06-17T06:54:04.680Z,5.87
2018-06-17T06:56:33.270Z,6.10
2018-06-17T06:59:01.877Z,5.53
2018-06-17T07:01:41.683Z,5.00
2018-06-17T07:04:21.439Z,5.73
2018-06-17T07:07:01.526Z,6.30
2018-06-17T07:09:41.420Z,6.20
2018-06-17T07:12:10.020Z,6.33
2018-06-17T07:14:38.683Z,6.57
2018-06-17T07:18:18.158Z,5.80
2018-06-17T07:20:46.759Z,5.80
2018-06-17T07:23:15.370Z,5.50
2018-06-17T07:26:54.997Z,5.67
2018-06-17T07:29:38.364Z,5.70
2018-06-17T07:32:06.973Z,7.00
2018-06-17T07:34:35.658Z,5.03
2018-06-17T07:37:04.458Z,6.07
2018-06-17T07:40:48.752Z,6.30
2018-06-17T07:43:17.361Z,5.47
2018-06-17T07:45:46.010Z,6.10
2018-06-17T07:48:25.777Z,5.20
2018-06-17T07:51:05.581Z,4.80
2018-06-17T07:53:34.196Z,4.40
2018-06-17T07:56:02.844Z,4.70
2018-06-17T07:58:31.422Z,5.07
2018-06-17T08:01:00.048Z,5.60
2018-06-17T08:03:28.677Z,4.60
2018-06-17T08:05:57.272Z,4.10
2018-06-17T08:08:25.875Z,4.47
2018-06-17T08:10:54.596Z,4.43
2018-06-17T08:13:23.141Z,5.00
2018-06-17T08:15:51.753Z,4.13
2018-06-17T08:18:20.370Z,4.50
2018-06-17T08:20:48.980Z,4.23
2018-06-17T08:23:17.585Z,5.00
2018-06-17T08:25:46.204Z,4.70
2018-06-17T08:28:14.799Z,4.50
2018-06-17T08:30:43.432Z,4.03
2018-06-17T08:33:12.013Z,4.40
2018-06-17T08:35:40.653Z,3.83
2018-06-17T08:38:09.225Z,4.30
2018-06-17T08:40:37.843Z,4.00
2018-06-17T08:43:06.437Z,4.97
2018-06-17T08:45:35.050Z,4.70
2018-06-17T08:48:03.667Z,4.53
2018-06-17T08:50:32.391Z,5.23
2018-06-17T08:53:00.954Z,5.10
2018-06-17T08:55:29.230Z,4.30
2018-06-17T08:57:57.800Z,4.17
2018-06-17T09:00:26.368Z,4.43
2018-06-17T09:02:54.984Z,4.23
2018-06-17T09:05:23.600Z,4.10
2018-06-17T09:07:52.181Z,4.17
2018-06-17T09:10:20.769Z,4.40
2018-06-17T09:12:49.341Z,3.70
2018-06-17T09:15:17.962Z,3.50
2018-06-17T09:17:46.567Z,3.10
2018-06-17T09:20:15.181Z,4.10
2018-06-17T09:22:43.778Z,3.77
2018-06-17T09:25:12.424Z,3.70
2018-06-17T09:27:40.972Z,3.63
2018-06-17T09:30:09.580Z,3.83
2018-06-17T09:32:38.212Z,3.50
2018-06-17T09:35:06.832Z,3.90
2018-06-17T09:37:35.480Z,4.20
2018-06-17T09:40:04.135Z,3.50
2018-06-17T09:42:33.143Z,4.10
2018-06-17T09:45:01.727Z,3.40
2018-06-17T09:47:30.329Z,4.20
2018-06-17T09:49:58.960Z,4.10
2018-06-17T09:52:27.612Z,4.07
2018-06-17T09:54:56.209Z,4.53
2018-06-17T09:57:24.841Z,3.67
2018-06-17T09:59:53.421Z,2.90
2018-06-17T10:02:22.037Z,3.10
2018-06-17T10:04:50.616Z,3.47
2018-06-17T10:07:19.230Z,3.97
2018-06-17T10:11:04.558Z,3.77
2018-06-17T10:13:50.836Z,4.00
2018-06-17T10:16:19.448Z,3.40
2018-06-17T10:18:47.996Z,3.17
2018-06-17T10:21:16.650Z,3.90
2018-06-17T10:23:45.239Z,3.10
2018-06-17T10:26:13.858Z,3.87
2018-06-17T10:28:42.454Z,3.40
2018-06-17T10:31:11.118Z,3.50
2018-06-17T10:33:39.716Z,3.60
2018-06-17T10:36:08.381Z,3.40
2018-06-17T10:38:37.007Z,3.43
2018-06-17T10:41:05.698Z,3.27
2018-06-17T10:43:34.441Z,3.30
2018-06-17T10:46:03.008Z,3.10
2018-06-17T10:48:31.610Z,3.50
2018-06-17T10:51:00.211Z,3.53
2018-06-17T10:53:28.828Z,3.93
2018-06-17T10:55:57.503Z,3.53
2018-06-17T10:58:26.048Z,3.73
2018-06-17T11:00:54.617Z,3.57
2018-06-17T11:03:23.286Z,3.20
2018-06-17T11:05:51.868Z,4.20
2018-06-17T11:08:20.479Z,2.77
2018-06-17T11:10:49.053Z,3.70
2018-06-17T11:13:17.715Z,3.47
2018-06-17T11:15:46.285Z,4.17
2018-06-17T11:18:14.884Z,3.87
2018-06-17T11:20:43.460Z,4.00
2018-06-17T11:23:12.099Z,3.90
2018-06-17T11:25:40.725Z,3.23
2018-06-17T11:28:09.374Z,3.63
2018-06-17T11:30:37.956Z,3.50
2018-06-17T11:33:06.694Z,3.27
2018-06-17T11:35:35.264Z,3.90
2018-06-17T11:38:03.847Z,3.43
2018-06-17T11:40:32.406Z,3.83
2018-06-17T11:43:01.062Z,4.30
2018-06-17T11:45:29.638Z,3.03
2018-06-17T11:47:58.235Z,4.13
2018-06-17T11:50:26.787Z,3.70
2018-06-17T11:52:55.376Z,2.90
2018-06-17T11:55:23.932Z,3.40
2018-06-17T11:57:52.520Z,3.70
2018-06-17T12:00:21.093Z,3.87
2018-06-17T12:02:49.685Z,4.17
2018-06-17T12:05:18.287Z,3.83
2018-06-17T12:07:46.840Z,4.07
2018-06-17T12:10:15.457Z,3.87
2018-06-17T12:12:44.049Z,3.53
2018-06-17T12:15:12.638Z,4.33
2018-06-17T12:17:41.277Z,3.43
2018-06-17T12:20:09.880Z,3.40
2018-06-17T12:22:38.456Z,3.60
2018-06-17T12:25:07.049Z,4.37
2018-06-17T12:27:35.616Z,3.90
2018-06-17T12:30:04.321Z,3.60
2018-06-17T12:32:32.868Z,4.27
2018-06-17T12:35:01.464Z,4.30
2018-06-17T12:37:30.057Z,3.73
2018-06-17T12:39:58.664Z,3.80
2018-06-17T12:42:27.208Z,3.60
2018-06-17T12:44:55.876Z,3.63
2018-06-17T12:47:24.437Z,4.50
2018-06-17T12:49:53.009Z,4.07
2018-06-17T12:52:21.577Z,4.47
2018-06-17T12:54:50.144Z,3.50
2018-06-17T12:57:18.682Z,3.50
2018-06-17T12:59:47.324Z,3.83
2018-06-17T13:02:15.872Z,3.97
2018-06-17T13:04:44.448Z,3.83
2018-06-17T13:07:13.013Z,3.90
2018-06-17T13:09:41.621Z,4.20
2018-06-17T13:12:10.209Z,4.27
2018-06-17T13:14:38.814Z,3.97
2018-06-17T13:17:07.414Z,4.00
2018-06-17T13:19:35.985Z,4.50
2018-06-17T13:22:04.632Z,4.63
2018-06-17T13:24:33.188Z,4.20
2018-06-17T13:27:01.765Z,4.80
2018-06-17T13:29:30.321Z,3.93
2018-06-17T13:31:58.904Z,3.97
2018-06-17T13:34:27.500Z,4.10
2018-06-17T13:36:56.093Z,3.90
2018-06-17T13:39:24.694Z,4.37
2018-06-17T13:41:53.272Z,4.30
2018-06-17T13:44:21.833Z,4.10
2018-06-17T13:46:50.420Z,4.40
2018-06-17T13:49:18.979Z,3.70
2018-06-17T13:51:47.650Z,4.23
2018-06-17T13:54:16.445Z,3.93
2018-06-17T13:56:45.053Z,3.73
2018-06-17T13:59:13.605Z,6.13
2018-06-17T14:01:42.213Z,3.67
2018-06-17T14:04:10.801Z,5.10
2018-06-17T14:06:39.389Z,5.70
2018-06-17T14:09:09.598Z,4.40
2018-06-17T14:11:38.231Z,6.30
2018-06-17T14:14:06.836Z,4.37
2018-06-17T14:16:35.517Z,4.07
2018-06-17T14:19:04.146Z,6.10
2018-06-17T14:21:32.762Z,10.03
2018-06-17T14:24:01.314Z,7.40
2018-06-17T14:26:29.858Z,5.63
2018-06-17T14:28:58.446Z,4.30
2018-06-17T14:31:27.153Z,5.30
2018-06-17T14:33:55.761Z,4.67
2018-06-17T14:36:24.416Z,4.00
2018-06-17T14:38:53.003Z,6.83
2018-06-17T14:41:21.626Z,4.07
2018-06-17T14:43:55.396Z,4.10
2018-06-17T14:46:29.333Z,4.90
2018-06-17T14:49:03.039Z,6.30
2018-06-17T14:51:37.096Z,4.27
2018-06-17T14:54:05.848Z,5.50
2018-06-17T14:56:34.465Z,4.97
2018-06-17T14:59:03.150Z,4.00
2018-06-17T15:01:31.788Z,6.20
2018-06-17T15:04:00.397Z,4.47
2018-06-17T15:06:28.999Z,4.70
2018-06-17T15:08:57.647Z,7.00
2018-06-17T15:11:26.298Z,4.20
2018-06-17T15:13:54.979Z,5.60
2018-06-17T15:16:23.615Z,6.20
2018-06-17T15:18:52.333Z,4.23
2018-06-17T15:21:20.985Z,6.90
2018-06-17T15:23:49.608Z,4.80
2018-06-17T15:26:19.493Z,5.00
2018-06-17T15:28:48.129Z,6.40
2018-06-17T15:31:21.942Z,4.73
2018-06-17T15:33:55.854Z,6.77
2018-06-17T15:36:29.831Z,4.10
2018-06-17T15:39:02.656Z,7.50
2018-06-17T15:41:31.333Z,4.17
2018-06-17T15:44:00.017Z,6.40
2018-06-17T15:46:28.657Z,4.97
2018-06-17T15:48:57.282Z,3.70
2018-06-17T15:51:25.910Z,6.40
2018-06-17T15:53:54.590Z,3.70
2018-06-17T15:56:23.203Z,5.40
2018-06-17T15:58:51.812Z,5.90
2018-06-17T16:01:20.433Z,4.47
2018-06-17T16:03:49.092Z,6.10
2018-06-17T16:06:17.720Z,5.27
2018-06-17T16:08:45.995Z,4.13
2018-06-17T16:11:14.602Z,6.37
2018-06-17T16:13:48.570Z,3.73
2018-06-17T16:16:22.600Z,5.83
2018-06-17T16:18:56.424Z,3.40
2018-06-17T16:21:25.018Z,6.27
2018-06-17T16:23:53.677Z,4.43
2018-06-17T16:26:21.965Z,3.97
2018-06-17T16:28:50.618Z,5.70
2018-06-17T16:31:19.292Z,3.30
2018-06-17T16:33:47.959Z,4.70
2018-06-17T16:36:16.678Z,5.50
2018-06-17T16:38:45.394Z,3.90
2018-06-17T16:41:14.003Z,6.30
2018-06-17T16:43:42.620Z,4.37
2018-06-17T16:46:11.200Z,3.00
2018-06-17T16:48:39.844Z,5.97
2018-06-17T16:51:13.957Z,3.33
2018-06-17T16:53:48.033Z,5.90
2018-06-17T16:56:21.893Z,3.60
2018-06-17T16:58:55.692Z,5.43
2018-06-17T17:01:24.324Z,3.47
2018-06-17T17:03:52.989Z,5.97
2018-06-17T17:06:21.598Z,4.30
2018-06-17T17:08:50.385Z,3.57
2018-06-17T17:11:18.962Z,5.63
2018-06-17T17:13:47.599Z,3.43
2018-06-17T17:16:16.167Z,3.47
2018-06-17T17:18:44.841Z,5.67
2018-06-17T17:21:13.176Z,3.53
2018-06-17T17:23:41.757Z,4.97
2018-06-17T17:26:10.426Z,4.67
2018-06-17T17:28:39.071Z,3.80
2018-06-17T17:31:07.893Z,5.80
2018-06-17T17:33:41.836Z,3.50
2018-06-17T17:36:15.825Z,5.07
2018-06-17T17:39:49.204Z,3.47
2018-06-17T17:42:18.892Z,4.27
2018-06-17T17:45:50.498Z,5.23
2018-06-17T17:48:19.134Z,4.10
2018-06-17T17:50:47.817Z,3.80
2018-06-17T17:53:16.442Z,5.70
2018-06-17T17:55:45.136Z,3.90
2018-06-17T17:58:13.764Z,4.80
2018-06-17T18:00:42.460Z,5.40
2018-06-17T18:03:11.121Z,3.60
2018-06-17T18:05:39.821Z,6.27
2018-06-17T18:08:08.425Z,4.90
2018-06-17T18:10:37.158Z,3.70
2018-06-17T18:13:05.901Z,5.90
2018-06-17T18:15:34.638Z,3.63
2018-06-17T18:18:03.346Z,4.17
2018-06-17T18:20:32.062Z,6.00
2018-06-17T18:23:00.803Z,3.30
2018-06-17T18:25:34.838Z,6.23
2018-06-17T18:28:08.828Z,3.33
2018-06-17T18:30:42.830Z,5.90
2018-06-17T18:33:16.718Z,4.23
2018-06-17T18:35:50.766Z,5.53
2018-06-17T18:38:19.485Z,3.60
2018-06-17T18:40:48.157Z,5.80
2018-06-17T18:43:17.932Z,4.70
2018-06-17T18:45:46.674Z,4.10
2018-06-17T18:48:15.390Z,6.30
2018-06-17T18:50:44.109Z,4.43
2018-06-17T18:53:12.911Z,4.77
2018-06-17T18:55:41.616Z,5.47
2018-06-17T18:58:10.297Z,4.60
2018-06-17T19:00:38.955Z,6.40
2018-06-17T19:03:07.628Z,4.47
2018-06-17T19:05:36.261Z,4.20
2018-06-17T19:08:05.026Z,6.43
2018-06-17T19:10:38.932Z,3.80
2018-06-17T19:13:12.850Z,6.10
2018-06-17T19:15:46.701Z,4.20
2018-06-17T19:18:15.424Z,6.30
2018-06-17T19:20:44.119Z,4.07
2018-06-17T19:23:12.733Z,3.77
2018-06-17T19:25:41.459Z,5.77
2018-06-17T19:28:10.153Z,3.90
2018-06-17T19:30:38.842Z,5.53
2018-06-17T19:33:07.611Z,4.40
2018-06-17T19:35:36.290Z,4.40
2018-06-17T19:38:05.206Z,6.60
2018-06-17T19:40:34.022Z,3.70
2018-06-17T19:43:02.705Z,3.80
2018-06-17T19:45:31.459Z,6.17
2018-06-17T19:48:00.140Z,3.63
2018-06-17T19:50:34.055Z,5.43
2018-06-17T19:53:08.247Z,4.00
2018-06-17T19:55:42.162Z,6.23
2018-06-17T19:58:16.085Z,3.97
2018-06-17T20:00:46.658Z,6.27
2018-06-17T20:03:15.247Z,4.07
2018-06-17T20:05:43.866Z,5.13
2018-06-17T20:08:12.550Z,5.30
2018-06-17T20:10:41.185Z,3.97
2018-06-17T20:13:09.870Z,6.27
2018-06-17T20:15:38.522Z,4.40
2018-06-17T20:18:07.150Z,4.53
2018-06-17T20:20:35.812Z,6.23
2018-06-17T20:23:04.428Z,4.00
2018-06-17T20:25:33.129Z,5.13
2018-06-17T20:28:01.741Z,5.73
2018-06-17T20:30:30.480Z,4.40
2018-06-17T20:33:04.966Z,6.77
2018-06-17T20:35:39.017Z,7.17
2018-06-17T20:38:12.876Z,6.20
2018-06-17T20:40:51.283Z,6.23
2018-06-17T20:43:29.497Z,6.03
2018-06-17T20:46:12.037Z,5.80
2018-06-17T20:48:56.031Z,6.30
2018-06-17T20:51:31.342Z,6.30
2018-06-17T20:53:59.973Z,6.90
2018-06-17T20:56:28.243Z,6.83
2018-06-17T20:58:56.827Z,4.70
2018-06-17T21:01:39.143Z,6.87
2018-06-17T21:04:23.172Z,6.50
2018-06-17T21:07:02.236Z,4.73
2018-06-17T21:09:47.084Z,3.80
2018-06-17T21:12:15.718Z,3.60
2018-06-17T21:14:44.256Z,3.63
2018-06-17T21:17:13.156Z,4.20
2018-06-17T21:19:47.110Z,4.60
2018-06-17T21:22:21.154Z,3.57
2018-06-17T21:24:55.395Z,4.47
2018-06-17T21:27:29.330Z,4.23
2018-06-17T21:29:58.022Z,3.60
2018-06-17T21:32:26.701Z,4.30
2018-06-17T21:34:55.397Z,3.60
2018-06-17T21:37:24.098Z,3.90
2018-06-17T21:39:52.846Z,3.40
2018-06-17T21:42:21.848Z,4.30
2018-06-17T21:44:50.486Z,4.50
2018-06-17T21:47:19.177Z,4.07
2018-06-17T21:49:48.453Z,3.83
2018-06-17T21:52:17.165Z,3.10
2018-06-17T21:54:46.133Z,3.10
2018-06-17T21:57:14.801Z,3.40
2018-06-17T21:59:43.485Z,3.90
2018-06-17T22:02:12.311Z,4.77
2018-06-17T22:04:42.070Z,3.97
2018-06-17T22:07:12.231Z,4.80
2018-06-17T22:09:46.192Z,4.90
2018-06-17T22:12:20.321Z,4.53
2018-06-17T22:14:54.189Z,4.60
2018-06-17T22:17:28.040Z,4.60
2018-06-17T22:19:56.746Z,5.23
2018-06-17T22:22:25.479Z,5.10
2018-06-17T22:24:54.206Z,4.90
2018-06-17T22:27:22.870Z,4.53
2018-06-17T22:29:51.538Z,5.13
2018-06-17T22:32:20.307Z,4.97
2018-06-17T22:34:49.031Z,4.73
2018-06-17T22:37:17.645Z,4.83
2018-06-17T22:39:46.287Z,4.20
2018-06-17T22:42:14.908Z,4.40
2018-06-17T22:44:43.537Z,4.73
2018-06-17T22:47:12.269Z,4.27
2018-06-17T22:49:40.945Z,4.40
2018-06-17T22:52:09.587Z,3.53
2018-06-17T22:54:51.650Z,4.27
2018-06-17T22:57:25.787Z,5.00
2018-06-17T22:59:59.701Z,4.27
2018-06-17T23:02:33.756Z,4.30
2018-06-17T23:05:07.610Z,4.30
2018-06-17T23:07:41.548Z,4.67
2018-06-17T23:10:11.568Z,4.53
2018-06-17T23:12:40.730Z,4.53
2018-06-17T23:15:09.363Z,4.30
2018-06-17T23:17:38.100Z,4.70
2018-06-17T23:20:06.732Z,4.40
2018-06-17T23:22:35.051Z,4.47
2018-06-17T23:25:03.716Z,3.70
2018-06-17T23:27:32.371Z,4.20
2018-06-17T23:30:00.989Z,4.67
2018-06-17T23:32:29.638Z,4.93
2018-06-17T23:34:58.301Z,5.50
2018-06-17T23:37:26.907Z,4.70
2018-06-17T23:39:55.600Z,4.93
2018-06-17T23:42:24.169Z,4.23
2018-06-17T23:44:52.842Z,4.40
2018-06-17T23:47:27.686Z,4.30
2018-06-17T23:50:01.636Z,4.10
2018-06-17T23:52:35.640Z,4.57
2018-06-17T23:55:09.524Z,4.70
2018-06-17T23:57:38.141Z,4.40
